createdAt,value
2022-12-29T00:00:28.671Z,36.53
2022-12-29T00:01:28.721Z,36.55
2022-12-29T00:02:28.821Z,36.54
2022-12-29T00:03:29.026Z,36.54
2022-12-29T00:04:28.967Z,36.51
2022-12-29T00:05:29.031Z,36.40
2022-12-29T00:06:29.113Z,36.46
2022-12-29T00:07:29.206Z,36.54
2022-12-29T00:08:29.300Z,36.53
2022-12-29T00:09:29.381Z,36.46
2022-12-29T00:10:29.496Z,36.41
2022-12-29T00:11:29.572Z,36.52
2022-12-29T00:12:29.655Z,36.55
2022-12-29T00:13:29.716Z,36.52
2022-12-29T00:14:29.790Z,36.47
2022-12-29T00:15:29.866Z,36.51
2022-12-29T00:16:30.043Z,36.49
2022-12-29T00:17:30.050Z,36.44
2022-12-29T00:18:30.149Z,36.45
2022-12-29T00:19:30.221Z,36.48
2022-12-29T00:20:30.298Z,36.48
2022-12-29T00:21:30.388Z,36.51
2022-12-29T00:22:30.487Z,36.50
2022-12-29T00:23:36.532Z,36.50
2022-12-29T00:24:30.625Z,36.57
2022-12-29T00:25:30.704Z,36.44
2022-12-29T00:26:30.801Z,36.44
2022-12-29T00:27:30.893Z,36.51
2022-12-29T00:28:30.998Z,36.45
2022-12-29T00:29:31.048Z,36.51
2022-12-29T00:30:31.132Z,36.45
2022-12-29T00:31:31.310Z,36.42
2022-12-29T00:32:31.281Z,36.47
2022-12-29T00:33:31.377Z,36.50
2022-12-29T00:34:31.473Z,36.52
2022-12-29T00:35:31.533Z,36.53
2022-12-29T00:36:31.667Z,36.56
2022-12-29T00:37:31.696Z,36.59
2022-12-29T00:38:31.757Z,36.51
2022-12-29T00:39:31.849Z,36.50
2022-12-29T00:40:31.927Z,36.43
2022-12-29T00:41:32.020Z,36.48
2022-12-29T00:42:32.082Z,36.48
2022-12-29T00:43:32.159Z,36.50
2022-12-29T00:44:32.267Z,36.45
2022-12-29T00:45:32.363Z,36.53
2022-12-29T00:46:32.466Z,36.52
2022-12-29T00:47:32.523Z,36.43
2022-12-29T00:48:32.601Z,36.49
2022-12-29T00:49:32.724Z,36.44
2022-12-29T00:50:32.752Z,36.51
2022-12-29T00:51:32.846Z,36.53
2022-12-29T00:52:32.901Z,36.44
2022-12-29T00:53:32.988Z,36.53
2022-12-29T00:54:39.033Z,36.51
2022-12-29T00:55:33.148Z,36.45
2022-12-29T00:56:33.262Z,36.52
2022-12-29T00:57:33.329Z,36.56
2022-12-29T00:58:33.379Z,36.48
2022-12-29T00:59:33.452Z,36.55
2022-12-29T01:00:33.608Z,36.41
2022-12-29T01:01:33.769Z,36.44
2022-12-29T01:02:33.914Z,36.57
2022-12-29T01:03:33.817Z,36.49
2022-12-29T01:04:33.884Z,36.52
2022-12-29T01:05:33.951Z,36.44
2022-12-29T01:06:34.023Z,36.50
2022-12-29T01:07:34.122Z,36.51
2022-12-29T01:08:34.229Z,36.54
2022-12-29T01:09:34.312Z,36.50
2022-12-29T01:10:34.388Z,36.48
2022-12-29T01:11:34.462Z,36.54
2022-12-29T01:12:34.542Z,36.49
2022-12-29T01:13:34.682Z,36.54
2022-12-29T01:14:34.756Z,36.56
2022-12-29T01:15:34.840Z,36.54
2022-12-29T01:16:34.974Z,36.51
2022-12-29T01:17:35.015Z,36.47
2022-12-29T01:18:35.091Z,36.49
2022-12-29T01:19:35.210Z,36.47
2022-12-29T01:20:35.250Z,36.49
2022-12-29T01:21:35.346Z,36.41
2022-12-29T01:22:35.411Z,36.49
2022-12-29T01:23:35.503Z,36.50
2022-12-29T01:24:35.601Z,36.46
2022-12-29T01:25:41.616Z,36.53
2022-12-29T01:26:35.712Z,36.53
2022-12-29T01:27:35.807Z,36.52
2022-12-29T01:28:35.887Z,36.55
2022-12-29T01:29:35.989Z,36.54
2022-12-29T01:30:36.089Z,36.46
2022-12-29T01:31:36.216Z,36.47
2022-12-29T01:32:36.233Z,36.53
2022-12-29T01:33:36.303Z,36.50
2022-12-29T01:34:36.405Z,36.50
2022-12-29T01:35:36.497Z,36.54
2022-12-29T01:36:36.566Z,36.53
2022-12-29T01:37:36.637Z,36.56
2022-12-29T01:38:36.721Z,36.39
2022-12-29T01:39:36.810Z,36.52
2022-12-29T01:40:36.887Z,36.54
2022-12-29T01:41:36.962Z,36.53
2022-12-29T01:42:37.034Z,36.45
2022-12-29T01:43:37.130Z,36.53
2022-12-29T01:44:37.202Z,36.54
2022-12-29T01:45:37.362Z,36.52
2022-12-29T01:46:37.397Z,36.56
2022-12-29T01:47:37.498Z,36.51
2022-12-29T01:48:37.532Z,36.49
2022-12-29T01:49:37.624Z,36.57
2022-12-29T01:50:37.715Z,36.55
2022-12-29T01:51:37.798Z,36.53
2022-12-29T01:52:37.890Z,36.52
2022-12-29T01:53:37.987Z,36.48
2022-12-29T01:54:38.060Z,36.53
2022-12-29T01:55:38.136Z,36.57
2022-12-29T01:56:44.206Z,36.53
2022-12-29T01:57:38.309Z,36.56
2022-12-29T01:58:38.392Z,36.59
2022-12-29T01:59:38.503Z,36.56
2022-12-29T02:00:38.660Z,36.54
2022-12-29T02:01:38.735Z,36.53
2022-12-29T02:02:38.860Z,36.53
2022-12-29T02:03:38.897Z,36.60
2022-12-29T02:04:38.900Z,36.53
2022-12-29T02:05:39.005Z,36.53
2022-12-29T02:06:39.053Z,36.58
2022-12-29T02:07:39.188Z,36.63
2022-12-29T02:08:39.220Z,36.49
2022-12-29T02:09:39.315Z,36.56
2022-12-29T02:10:39.421Z,36.58
2022-12-29T02:11:39.579Z,36.63
2022-12-29T02:12:39.583Z,36.52
2022-12-29T02:13:39.656Z,36.62
2022-12-29T02:14:39.731Z,36.55
2022-12-29T02:15:39.824Z,36.55
2022-12-29T02:16:39.973Z,36.56
2022-12-29T02:17:40.019Z,36.47
2022-12-29T02:18:40.073Z,36.58
2022-12-29T02:19:40.163Z,36.41
2022-12-29T02:20:40.249Z,36.52
2022-12-29T02:21:40.310Z,36.53
2022-12-29T02:22:40.424Z,36.55
2022-12-29T02:23:40.503Z,36.48
2022-12-29T02:24:40.551Z,36.55
2022-12-29T02:25:40.622Z,36.50
2022-12-29T02:26:40.696Z,36.51
2022-12-29T02:27:46.751Z,36.56
2022-12-29T02:28:40.860Z,36.46
2022-12-29T02:29:40.968Z,36.53
2022-12-29T02:30:41.040Z,36.53
2022-12-29T02:31:41.205Z,36.53
2022-12-29T02:32:41.221Z,36.52
2022-12-29T02:33:41.325Z,36.57
2022-12-29T02:34:41.412Z,36.59
2022-12-29T02:35:41.499Z,36.52
2022-12-29T02:36:41.545Z,36.57
2022-12-29T02:37:41.633Z,36.48
2022-12-29T02:38:41.731Z,36.52
2022-12-29T02:39:41.778Z,36.53
2022-12-29T02:40:41.844Z,36.50
2022-12-29T02:41:41.948Z,36.48
2022-12-29T02:42:42.011Z,36.58
2022-12-29T02:43:42.106Z,36.59
2022-12-29T02:44:42.210Z,36.43
2022-12-29T02:45:42.329Z,36.54
2022-12-29T02:46:42.346Z,36.52
2022-12-29T02:47:42.444Z,36.50
2022-12-29T02:48:42.491Z,36.56
2022-12-29T02:49:42.576Z,36.50
2022-12-29T02:50:42.647Z,36.55
2022-12-29T02:51:42.709Z,36.57
2022-12-29T02:52:42.817Z,36.57
2022-12-29T02:53:42.890Z,36.53
2022-12-29T02:54:43.009Z,36.52
2022-12-29T02:55:43.065Z,36.58
2022-12-29T02:56:43.151Z,36.62
2022-12-29T02:57:43.244Z,36.55
2022-12-29T02:58:49.425Z,36.52
2022-12-29T02:59:43.396Z,36.52
2022-12-29T03:00:43.529Z,36.58
2022-12-29T03:01:43.748Z,36.54
2022-12-29T03:02:43.819Z,36.56
2022-12-29T03:03:43.741Z,36.51
2022-12-29T03:04:43.849Z,36.57
2022-12-29T03:05:43.889Z,36.58
2022-12-29T03:06:43.996Z,36.49
2022-12-29T03:07:44.065Z,36.52
2022-12-29T03:08:44.198Z,36.53
2022-12-29T03:09:44.260Z,36.58
2022-12-29T03:10:44.341Z,36.49
2022-12-29T03:11:44.391Z,36.51
2022-12-29T03:12:44.460Z,36.54
2022-12-29T03:13:44.532Z,36.51
2022-12-29T03:14:44.619Z,36.57
2022-12-29T03:15:44.728Z,36.47
2022-12-29T03:16:44.839Z,36.59
2022-12-29T03:17:44.857Z,36.58
2022-12-29T03:18:44.923Z,36.57
2022-12-29T03:19:45.044Z,36.58
2022-12-29T03:20:45.114Z,36.61
2022-12-29T03:21:45.210Z,36.58
2022-12-29T03:22:45.250Z,36.58
2022-12-29T03:23:45.324Z,36.57
2022-12-29T03:24:45.410Z,36.59
2022-12-29T03:25:45.489Z,36.53
2022-12-29T03:26:45.602Z,36.53
2022-12-29T03:27:45.663Z,36.56
2022-12-29T03:28:45.734Z,36.56
2022-12-29T03:29:51.765Z,36.55
2022-12-29T03:30:45.926Z,36.59
2022-12-29T03:31:45.965Z,36.59
2022-12-29T03:32:46.070Z,36.51
2022-12-29T03:33:46.109Z,36.56
2022-12-29T03:34:46.217Z,36.54
2022-12-29T03:35:46.272Z,36.56
2022-12-29T03:36:46.369Z,36.63
2022-12-29T03:37:46.479Z,36.63
2022-12-29T03:38:46.546Z,36.52
2022-12-29T03:39:46.642Z,36.52
2022-12-29T03:40:46.699Z,36.62
2022-12-29T03:41:46.775Z,36.50
2022-12-29T03:42:46.844Z,36.55
2022-12-29T03:43:46.942Z,36.56
2022-12-29T03:44:47.033Z,36.49
2022-12-29T03:45:47.084Z,36.48
2022-12-29T03:46:47.135Z,36.52
2022-12-29T03:47:47.268Z,36.59
2022-12-29T03:48:47.320Z,36.52
2022-12-29T03:49:47.431Z,36.46
2022-12-29T03:50:47.505Z,36.49
2022-12-29T03:51:51.030Z,36.58
2022-12-29T03:52:47.676Z,36.52
2022-12-29T03:53:47.763Z,36.59
2022-12-29T03:54:47.844Z,36.63
2022-12-29T03:55:47.908Z,36.51
2022-12-29T03:56:47.992Z,36.58
2022-12-29T03:57:48.077Z,36.50
2022-12-29T03:58:48.245Z,36.53
2022-12-29T03:59:48.265Z,36.50
2022-12-29T04:00:54.464Z,36.56
2022-12-29T04:01:48.541Z,36.53
2022-12-29T04:02:48.803Z,36.62
2022-12-29T04:03:48.705Z,36.60
2022-12-29T04:04:48.706Z,36.62
2022-12-29T04:05:48.778Z,36.59
2022-12-29T04:06:48.866Z,36.58
2022-12-29T04:07:48.930Z,36.55
2022-12-29T04:08:49.018Z,36.57
2022-12-29T04:09:49.086Z,36.57
2022-12-29T04:10:49.155Z,36.59
2022-12-29T04:11:49.238Z,36.58
2022-12-29T04:12:49.344Z,36.53
2022-12-29T04:13:49.399Z,36.49
2022-12-29T04:14:49.487Z,36.50
2022-12-29T04:15:49.674Z,36.55
2022-12-29T04:16:49.638Z,36.52
2022-12-29T04:17:49.752Z,36.56
2022-12-29T04:18:49.787Z,36.53
2022-12-29T04:19:49.885Z,36.61
2022-12-29T04:20:49.970Z,36.59
2022-12-29T04:21:50.060Z,36.50
2022-12-29T04:22:50.164Z,36.41
2022-12-29T04:23:50.234Z,36.47
2022-12-29T04:24:50.335Z,36.47
2022-12-29T04:25:50.386Z,36.61
2022-12-29T04:26:50.457Z,36.60
2022-12-29T04:27:50.536Z,36.52
2022-12-29T04:28:50.638Z,36.52
2022-12-29T04:29:50.701Z,36.56
2022-12-29T04:30:50.840Z,36.52
2022-12-29T04:31:56.833Z,36.55
2022-12-29T04:32:50.963Z,36.43
2022-12-29T04:33:51.039Z,36.46
2022-12-29T04:34:51.152Z,36.50
2022-12-29T04:35:51.226Z,36.61
2022-12-29T04:36:51.297Z,36.54
2022-12-29T04:37:51.348Z,36.58
2022-12-29T04:38:51.429Z,36.39
2022-12-29T04:39:51.556Z,36.55
2022-12-29T04:40:51.606Z,36.50
2022-12-29T04:41:51.701Z,36.54
2022-12-29T04:42:51.800Z,36.50
2022-12-29T04:43:51.869Z,36.57
2022-12-29T04:44:51.956Z,36.54
2022-12-29T04:45:52.075Z,36.37
2022-12-29T04:46:52.159Z,36.55
2022-12-29T04:47:52.169Z,36.57
2022-12-29T04:48:52.256Z,36.56
2022-12-29T04:49:52.333Z,36.44
2022-12-29T04:50:52.433Z,36.53
2022-12-29T04:51:52.522Z,36.59
2022-12-29T04:52:52.618Z,36.46
2022-12-29T04:53:52.693Z,36.56
2022-12-29T04:54:52.768Z,36.40
2022-12-29T04:55:52.911Z,36.56
2022-12-29T04:56:52.964Z,36.53
2022-12-29T04:57:53.065Z,36.49
2022-12-29T04:58:53.133Z,36.57
2022-12-29T04:59:53.231Z,36.63
2022-12-29T05:00:53.373Z,36.55
2022-12-29T05:01:53.461Z,36.56
2022-12-29T05:02:59.681Z,36.62
2022-12-29T05:03:53.625Z,36.57
2022-12-29T05:04:53.674Z,36.56
2022-12-29T05:05:53.778Z,36.58
2022-12-29T05:06:53.837Z,36.53
2022-12-29T05:07:53.902Z,36.57
2022-12-29T05:08:54.000Z,36.52
2022-12-29T05:09:54.084Z,36.55
2022-12-29T05:10:54.162Z,36.47
2022-12-29T05:11:54.252Z,36.53
2022-12-29T05:12:54.330Z,36.53
2022-12-29T05:13:54.407Z,36.54
2022-12-29T05:14:54.512Z,36.62
2022-12-29T05:15:54.597Z,36.52
2022-12-29T05:16:54.645Z,36.61
2022-12-29T05:17:54.727Z,36.60
2022-12-29T05:18:54.830Z,36.59
2022-12-29T05:19:54.915Z,36.61
2022-12-29T05:20:55.022Z,36.60
2022-12-29T05:21:55.075Z,36.64
2022-12-29T05:22:55.169Z,36.53
2022-12-29T05:23:55.255Z,36.58
2022-12-29T05:24:55.333Z,36.63
2022-12-29T05:25:55.412Z,36.54
2022-12-29T05:26:55.523Z,36.57
2022-12-29T05:27:55.561Z,36.60
2022-12-29T05:28:55.651Z,36.57
2022-12-29T05:29:55.744Z,36.60
2022-12-29T05:30:55.889Z,36.51
2022-12-29T05:31:56.043Z,36.52
2022-12-29T05:32:55.996Z,36.59
2022-12-29T05:34:02.028Z,36.62
2022-12-29T05:34:56.135Z,36.56
2022-12-29T05:35:56.207Z,36.45
2022-12-29T05:36:56.263Z,36.52
2022-12-29T05:37:56.369Z,36.52
2022-12-29T05:38:56.488Z,36.45
2022-12-29T05:39:56.548Z,36.52
2022-12-29T05:40:56.634Z,36.48
2022-12-29T05:41:56.698Z,36.54
2022-12-29T05:42:56.775Z,36.53
2022-12-29T05:43:56.843Z,36.54
2022-12-29T05:44:56.930Z,36.55
2022-12-29T05:45:57.000Z,36.52
2022-12-29T05:46:57.139Z,36.54
2022-12-29T05:47:57.180Z,36.62
2022-12-29T05:48:57.260Z,36.61
2022-12-29T05:49:57.335Z,36.49
2022-12-29T05:50:57.411Z,36.50
2022-12-29T05:51:57.478Z,36.53
2022-12-29T05:52:57.565Z,36.54
2022-12-29T05:53:57.651Z,36.53
2022-12-29T05:54:57.743Z,36.53
2022-12-29T05:55:57.835Z,36.50
2022-12-29T05:56:57.911Z,36.50
2022-12-29T05:57:57.999Z,36.48
2022-12-29T05:58:58.079Z,36.45
2022-12-29T05:59:58.159Z,36.47
2022-12-29T06:00:58.249Z,36.56
2022-12-29T06:01:58.531Z,36.57
2022-12-29T06:02:58.604Z,36.57
2022-12-29T06:03:58.557Z,36.60
2022-12-29T06:05:04.544Z,36.54
2022-12-29T06:05:58.671Z,36.61
2022-12-29T06:06:58.754Z,36.53
2022-12-29T06:07:58.832Z,36.54
2022-12-29T06:08:58.931Z,36.64
2022-12-29T06:09:59.018Z,36.57
2022-12-29T06:10:59.103Z,36.62
2022-12-29T06:11:59.183Z,36.59
2022-12-29T06:12:59.293Z,36.54
2022-12-29T06:13:59.349Z,36.48
2022-12-29T06:14:59.420Z,36.53
2022-12-29T06:15:59.535Z,36.57
2022-12-29T06:16:59.574Z,36.41
2022-12-29T06:17:59.669Z,36.52
2022-12-29T06:18:59.718Z,36.54
2022-12-29T06:19:59.787Z,36.54
2022-12-29T06:20:59.860Z,36.59
2022-12-29T06:21:59.944Z,36.53
2022-12-29T06:23:00.036Z,36.52
2022-12-29T06:24:00.136Z,36.49
2022-12-29T06:25:05.000Z,36.44
2022-12-29T06:26:00.317Z,36.50
2022-12-29T06:27:00.401Z,36.46
2022-12-29T06:28:00.448Z,36.53
2022-12-29T06:29:00.557Z,36.51
2022-12-29T06:30:00.623Z,36.57
2022-12-29T06:31:00.737Z,36.55
2022-12-29T06:32:00.882Z,36.58
2022-12-29T06:33:00.887Z,36.59
2022-12-29T06:34:05.082Z,36.48
2022-12-29T06:35:01.098Z,36.56
2022-12-29T06:36:07.124Z,36.52
2022-12-29T06:37:01.237Z,36.50
2022-12-29T06:38:01.313Z,36.52
2022-12-29T06:39:01.394Z,36.56
2022-12-29T06:40:01.553Z,36.54
2022-12-29T06:41:01.581Z,36.51
2022-12-29T06:42:01.653Z,36.49
2022-12-29T06:43:01.722Z,36.51
2022-12-29T06:44:01.789Z,36.54
2022-12-29T06:45:02.011Z,36.51
2022-12-29T06:46:02.050Z,36.55
2022-12-29T06:47:02.019Z,36.51
2022-12-29T06:48:02.111Z,36.56
2022-12-29T06:49:02.200Z,36.43
2022-12-29T06:50:02.288Z,36.49
2022-12-29T06:51:02.351Z,36.58
2022-12-29T06:52:04.163Z,36.56
2022-12-29T06:53:02.521Z,36.45
2022-12-29T06:54:02.612Z,36.51
2022-12-29T06:55:02.686Z,36.57
2022-12-29T06:56:02.775Z,36.52
2022-12-29T06:57:02.877Z,36.54
2022-12-29T06:58:02.954Z,36.54
2022-12-29T06:59:03.023Z,36.52
2022-12-29T07:00:03.099Z,36.52
2022-12-29T07:01:03.253Z,36.44
2022-12-29T07:02:03.581Z,36.46
2022-12-29T07:03:03.525Z,36.57
2022-12-29T07:04:03.410Z,36.47
2022-12-29T07:05:03.490Z,36.56
2022-12-29T07:06:03.594Z,36.45
2022-12-29T07:07:09.650Z,36.44
2022-12-29T07:08:03.756Z,36.54
2022-12-29T07:09:03.804Z,36.52
2022-12-29T07:10:03.887Z,36.48
2022-12-29T07:11:03.992Z,36.53
2022-12-29T07:12:04.035Z,36.52
2022-12-29T07:13:04.101Z,36.49
2022-12-29T07:14:04.247Z,36.48
2022-12-29T07:15:04.249Z,36.48
2022-12-29T07:16:04.347Z,36.48
2022-12-29T07:17:04.459Z,36.46
2022-12-29T07:18:04.492Z,36.41
2022-12-29T07:19:04.575Z,36.49
2022-12-29T07:20:04.633Z,36.47
2022-12-29T07:21:04.698Z,36.56
2022-12-29T07:22:04.770Z,36.43
2022-12-29T07:23:04.851Z,36.49
2022-12-29T07:24:04.939Z,36.33
2022-12-29T07:25:05.060Z,36.51
2022-12-29T07:26:05.098Z,36.34
2022-12-29T07:27:05.179Z,36.48
2022-12-29T07:28:05.269Z,36.47
2022-12-29T07:29:05.367Z,36.44
2022-12-29T07:30:05.439Z,36.44
2022-12-29T07:31:05.554Z,36.45
2022-12-29T07:32:05.692Z,36.38
2022-12-29T07:33:05.704Z,36.45
2022-12-29T07:34:05.796Z,36.44
2022-12-29T07:35:05.873Z,36.48
2022-12-29T07:36:05.957Z,36.44
2022-12-29T07:37:06.029Z,36.50
2022-12-29T07:38:12.066Z,36.47
2022-12-29T07:39:06.160Z,36.39
2022-12-29T07:40:06.250Z,36.42
2022-12-29T07:41:06.335Z,36.48
2022-12-29T07:42:06.425Z,36.43
2022-12-29T07:43:06.524Z,36.52
2022-12-29T07:44:06.587Z,36.40
2022-12-29T07:45:06.685Z,36.46
2022-12-29T07:46:06.865Z,36.46
2022-12-29T07:47:06.910Z,36.41
2022-12-29T07:48:06.927Z,36.46
2022-12-29T07:49:07.038Z,36.39
2022-12-29T07:50:07.107Z,36.48
2022-12-29T07:51:07.215Z,36.46
2022-12-29T07:52:07.302Z,36.53
2022-12-29T07:53:07.360Z,36.55
2022-12-29T07:54:07.442Z,36.48
2022-12-29T07:55:07.539Z,36.53
2022-12-29T07:56:07.607Z,36.48
2022-12-29T07:57:07.712Z,36.42
2022-12-29T07:58:07.786Z,36.47
2022-12-29T07:59:07.868Z,36.51
2022-12-29T08:00:07.965Z,36.42
2022-12-29T08:01:08.092Z,36.48
2022-12-29T08:02:08.313Z,36.42
2022-12-29T08:03:08.213Z,36.50
2022-12-29T08:04:08.391Z,36.52
2022-12-29T08:05:08.388Z,36.57
2022-12-29T08:06:08.483Z,36.43
2022-12-29T08:07:08.530Z,36.41
2022-12-29T08:08:08.610Z,36.53
2022-12-29T08:09:21.694Z,36.53
2022-12-29T08:10:08.760Z,36.56
2022-12-29T08:11:08.849Z,36.49
2022-12-29T08:12:08.948Z,36.44
2022-12-29T08:13:09.027Z,36.47
2022-12-29T08:14:09.105Z,36.49
2022-12-29T08:15:09.169Z,36.45
2022-12-29T08:16:09.320Z,36.46
2022-12-29T08:17:09.363Z,36.51
2022-12-29T08:18:09.464Z,36.39
2022-12-29T08:19:09.535Z,36.48
2022-12-29T08:20:09.605Z,36.40
2022-12-29T08:21:09.688Z,36.46
2022-12-29T08:22:09.760Z,36.45
2022-12-29T08:23:09.841Z,36.47
2022-12-29T08:24:09.926Z,36.50
2022-12-29T08:25:09.991Z,36.46
2022-12-29T08:26:10.092Z,36.37
2022-12-29T08:27:17.985Z,36.44
2022-12-29T08:28:10.280Z,36.47
2022-12-29T08:29:10.352Z,36.43
2022-12-29T08:30:10.459Z,36.57
2022-12-29T08:31:10.544Z,36.36
2022-12-29T08:32:10.590Z,36.55
2022-12-29T08:33:10.674Z,36.46
2022-12-29T08:34:10.752Z,36.49
2022-12-29T08:35:10.813Z,36.50
2022-12-29T08:36:10.921Z,36.39
2022-12-29T08:37:11.012Z,36.54
2022-12-29T08:38:11.088Z,36.41
2022-12-29T08:39:11.176Z,36.47
2022-12-29T08:40:17.222Z,36.54
2022-12-29T08:41:11.331Z,36.58
2022-12-29T08:42:11.419Z,36.54
2022-12-29T08:43:11.483Z,36.45
2022-12-29T08:44:11.546Z,36.54
2022-12-29T08:45:11.636Z,36.50
2022-12-29T08:46:11.753Z,36.51
2022-12-29T08:47:11.819Z,36.49
2022-12-29T08:48:11.894Z,36.57
2022-12-29T08:49:11.960Z,36.51
2022-12-29T08:50:12.062Z,36.53
2022-12-29T08:51:12.130Z,36.55
2022-12-29T08:52:12.201Z,36.41
2022-12-29T08:53:12.313Z,36.48
2022-12-29T08:54:12.359Z,36.44
2022-12-29T08:55:12.455Z,36.55
2022-12-29T08:56:12.523Z,36.47
2022-12-29T08:57:12.617Z,36.49
2022-12-29T08:58:12.717Z,36.56
2022-12-29T08:59:12.776Z,36.36
2022-12-29T09:00:12.881Z,36.52
2022-12-29T09:01:12.976Z,36.44
2022-12-29T09:02:16.371Z,36.50
2022-12-29T09:03:13.269Z,36.55
2022-12-29T09:04:15.464Z,36.51
2022-12-29T09:05:13.374Z,36.49
2022-12-29T09:06:13.401Z,36.47
2022-12-29T09:07:13.477Z,36.48
2022-12-29T09:08:13.568Z,36.33
2022-12-29T09:09:13.672Z,36.49
2022-12-29T09:10:13.717Z,36.45
2022-12-29T09:11:19.787Z,36.35
2022-12-29T09:12:13.882Z,36.47
2022-12-29T09:13:13.971Z,36.42
2022-12-29T09:14:14.052Z,36.50
2022-12-29T09:15:14.657Z,36.45
2022-12-29T09:16:14.310Z,36.51
2022-12-29T09:17:14.299Z,36.37
2022-12-29T09:18:20.322Z,36.58
2022-12-29T09:19:14.475Z,36.54
2022-12-29T09:20:14.553Z,36.50
2022-12-29T09:21:14.642Z,36.50
2022-12-29T09:22:14.722Z,36.31
2022-12-29T09:23:14.809Z,36.41
2022-12-29T09:24:14.877Z,36.43
2022-12-29T09:25:14.943Z,36.47
2022-12-29T09:26:15.039Z,36.37
2022-12-29T09:27:15.126Z,36.38
2022-12-29T09:28:15.190Z,36.41
2022-12-29T09:29:15.294Z,36.34
2022-12-29T09:30:15.355Z,36.46
2022-12-29T09:31:15.559Z,36.43
2022-12-29T09:32:18.580Z,36.47
2022-12-29T09:33:15.605Z,36.48
2022-12-29T09:34:15.694Z,36.46
2022-12-29T09:35:15.765Z,36.45
2022-12-29T09:36:15.833Z,36.39
2022-12-29T09:37:15.916Z,36.43
2022-12-29T09:38:16.013Z,36.44
2022-12-29T09:39:16.086Z,36.39
2022-12-29T09:40:16.178Z,36.54
2022-12-29T09:41:16.236Z,36.48
2022-12-29T09:42:22.305Z,36.36
2022-12-29T09:43:16.406Z,36.42
2022-12-29T09:44:16.512Z,36.33
2022-12-29T09:45:16.605Z,36.41
2022-12-29T09:46:16.709Z,36.41
2022-12-29T09:47:16.759Z,36.38
2022-12-29T09:48:16.830Z,36.44
2022-12-29T09:49:16.926Z,36.39
2022-12-29T09:50:17.025Z,36.37
2022-12-29T09:51:17.077Z,36.43
2022-12-29T09:52:17.158Z,36.34
2022-12-29T09:53:17.248Z,36.34
2022-12-29T09:54:17.325Z,36.53
2022-12-29T09:55:17.392Z,36.55
2022-12-29T09:56:17.505Z,36.39
2022-12-29T09:57:17.588Z,36.30
2022-12-29T09:58:17.657Z,36.29
2022-12-29T09:59:17.738Z,36.25
2022-12-29T10:00:17.821Z,36.31
2022-12-29T10:01:18.000Z,36.23
2022-12-29T10:02:18.100Z,36.25
2022-12-29T10:03:18.166Z,36.28
2022-12-29T10:04:18.140Z,36.23
2022-12-29T10:05:18.205Z,36.31
2022-12-29T10:06:18.279Z,36.25
2022-12-29T10:07:33.624Z,36.20
2022-12-29T10:08:18.464Z,36.27
2022-12-29T10:09:18.528Z,36.26
2022-12-29T10:10:18.740Z,36.22
2022-12-29T10:11:18.686Z,36.32
2022-12-29T10:12:18.758Z,36.34
2022-12-29T10:13:25.183Z,36.25
2022-12-29T10:14:18.935Z,36.40
2022-12-29T10:15:19.017Z,36.42
2022-12-29T10:16:19.147Z,36.35
2022-12-29T10:17:19.158Z,36.40
2022-12-29T10:18:19.251Z,36.53
2022-12-29T10:19:19.362Z,36.41
2022-12-29T10:20:19.543Z,36.47
2022-12-29T10:21:19.504Z,36.41
2022-12-29T10:22:19.610Z,36.31
2022-12-29T10:23:19.665Z,36.34
2022-12-29T10:24:19.761Z,36.26
2022-12-29T10:25:19.812Z,36.25
2022-12-29T10:26:19.884Z,36.20
2022-12-29T10:27:19.945Z,36.27
2022-12-29T10:28:20.000Z,36.23
2022-12-29T10:29:20.086Z,36.25
2022-12-29T10:30:20.194Z,36.22
2022-12-29T10:31:20.299Z,36.25
2022-12-29T10:32:20.324Z,36.23
2022-12-29T10:33:20.411Z,36.20
2022-12-29T10:34:20.491Z,36.18
2022-12-29T10:35:20.592Z,36.19
2022-12-29T10:36:20.688Z,36.17
2022-12-29T10:37:20.760Z,36.20
2022-12-29T10:38:20.838Z,36.18
2022-12-29T10:39:20.931Z,36.24
2022-12-29T10:40:21.041Z,36.18
2022-12-29T10:41:21.129Z,36.22
2022-12-29T10:42:21.194Z,36.19
2022-12-29T10:43:21.475Z,36.21
2022-12-29T10:44:27.331Z,36.17
2022-12-29T10:45:21.428Z,36.19
2022-12-29T10:46:21.560Z,36.19
2022-12-29T10:47:21.590Z,36.23
2022-12-29T10:48:23.110Z,36.14
2022-12-29T10:49:22.578Z,36.33
2022-12-29T10:50:21.861Z,36.36
2022-12-29T10:51:21.949Z,36.22
2022-12-29T10:52:22.035Z,36.22
2022-12-29T10:53:22.099Z,36.24
2022-12-29T10:54:22.178Z,36.22
2022-12-29T10:55:22.270Z,36.26
2022-12-29T10:56:22.335Z,36.29
2022-12-29T10:57:22.438Z,36.24
2022-12-29T10:58:22.512Z,36.30
2022-12-29T10:59:22.593Z,36.19
2022-12-29T11:00:22.646Z,36.29
2022-12-29T11:01:22.970Z,36.20
2022-12-29T11:02:23.798Z,36.41
2022-12-29T11:03:22.945Z,36.43
2022-12-29T11:04:22.995Z,36.30
2022-12-29T11:05:23.058Z,36.65
2022-12-29T11:06:23.159Z,36.40
2022-12-29T11:07:27.037Z,36.32
2022-12-29T11:08:23.333Z,36.38
2022-12-29T11:09:28.813Z,36.42
2022-12-29T11:10:23.494Z,36.39
2022-12-29T11:11:23.533Z,36.45
2022-12-29T11:12:23.615Z,36.33
2022-12-29T11:13:23.699Z,36.45
2022-12-29T11:14:23.786Z,36.46
2022-12-29T11:15:30.228Z,36.36
2022-12-29T11:16:23.989Z,36.57
2022-12-29T11:17:24.050Z,36.48
2022-12-29T11:18:24.131Z,36.32
2022-12-29T11:19:24.215Z,36.38
2022-12-29T11:20:24.308Z,36.63
2022-12-29T11:21:24.402Z,37.11
2022-12-29T11:22:24.467Z,36.95
2022-12-29T11:23:24.541Z,36.62
2022-12-29T11:24:24.643Z,36.46
2022-12-29T11:25:24.681Z,36.42
2022-12-29T11:26:30.183Z,36.41
2022-12-29T11:27:24.828Z,36.48
2022-12-29T11:28:24.918Z,36.33
2022-12-29T11:29:25.008Z,36.34
2022-12-29T11:30:25.050Z,36.46
2022-12-29T11:31:25.166Z,36.32
2022-12-29T11:32:28.789Z,36.54
2022-12-29T11:33:25.330Z,36.53
2022-12-29T11:34:25.403Z,36.40
2022-12-29T11:35:25.496Z,36.40
2022-12-29T11:36:25.586Z,36.29
2022-12-29T11:37:25.681Z,36.25
2022-12-29T11:38:25.750Z,36.38
2022-12-29T11:39:25.821Z,36.31
2022-12-29T11:40:25.908Z,36.52
2022-12-29T11:41:25.971Z,36.30
2022-12-29T11:42:26.056Z,36.39
2022-12-29T11:43:26.167Z,36.35
2022-12-29T11:44:26.215Z,36.50
2022-12-29T11:45:26.301Z,36.51
2022-12-29T11:46:32.465Z,36.59
2022-12-29T11:47:26.481Z,36.54
2022-12-29T11:48:26.556Z,36.48
2022-12-29T11:49:26.686Z,36.88
2022-12-29T11:50:26.702Z,36.56
2022-12-29T11:51:26.773Z,36.53
2022-12-29T11:52:26.856Z,36.55
2022-12-29T11:53:26.952Z,36.66
2022-12-29T11:54:27.064Z,36.60
2022-12-29T11:55:27.149Z,36.68
2022-12-29T11:56:27.220Z,36.44
2022-12-29T11:57:27.286Z,36.70
2022-12-29T11:58:27.376Z,36.59
2022-12-29T11:59:27.476Z,36.51
2022-12-29T12:00:27.561Z,36.67
2022-12-29T12:01:27.677Z,36.52
2022-12-29T12:02:27.766Z,36.45
2022-12-29T12:03:27.967Z,36.41
2022-12-29T12:04:27.964Z,36.38
2022-12-29T12:05:28.099Z,36.38
2022-12-29T12:06:28.081Z,36.33
2022-12-29T12:07:28.152Z,36.44
2022-12-29T12:08:28.216Z,36.35
2022-12-29T12:09:28.279Z,36.35
2022-12-29T12:10:28.360Z,36.49
2022-12-29T12:11:28.436Z,36.36
2022-12-29T12:12:28.520Z,36.48
2022-12-29T12:13:28.610Z,36.44
2022-12-29T12:14:28.684Z,36.48
2022-12-29T12:15:28.786Z,36.42
2022-12-29T12:16:28.909Z,36.41
2022-12-29T12:17:34.916Z,36.58
2022-12-29T12:18:29.049Z,36.54
2022-12-29T12:19:29.085Z,36.46
2022-12-29T12:20:29.172Z,36.47
2022-12-29T12:21:29.272Z,36.34
2022-12-29T12:22:29.373Z,36.35
2022-12-29T12:23:29.426Z,36.84
2022-12-29T12:24:29.527Z,36.47
2022-12-29T12:25:29.610Z,36.58
2022-12-29T12:26:29.723Z,36.71
2022-12-29T12:27:29.802Z,36.56
2022-12-29T12:28:36.281Z,36.70
2022-12-29T12:29:29.954Z,36.52
2022-12-29T12:30:30.022Z,36.61
2022-12-29T12:31:30.216Z,36.45
2022-12-29T12:32:30.194Z,36.48
2022-12-29T12:33:30.287Z,36.42
2022-12-29T12:34:30.360Z,36.61
2022-12-29T12:35:30.453Z,36.81
2022-12-29T12:36:30.540Z,36.78
2022-12-29T12:37:30.588Z,36.68
2022-12-29T12:38:30.698Z,36.61
2022-12-29T12:39:30.775Z,36.98
2022-12-29T12:40:30.856Z,36.53
2022-12-29T12:41:30.938Z,36.64
2022-12-29T12:42:31.017Z,36.50
2022-12-29T12:43:31.087Z,36.48
2022-12-29T12:44:31.171Z,36.48
2022-12-29T12:45:31.242Z,36.85
2022-12-29T12:46:31.371Z,36.70
2022-12-29T12:47:31.413Z,36.75
2022-12-29T12:48:37.477Z,37.30
2022-12-29T12:49:31.615Z,37.51
2022-12-29T12:50:31.659Z,36.93
2022-12-29T12:51:31.731Z,37.06
2022-12-29T12:52:31.818Z,36.79
2022-12-29T12:53:31.889Z,37.08